createdAt,value
2022-09-20T00:00:50.482Z,85
2022-09-20T00:02:50.631Z,85
2022-09-20T00:04:51.151Z,85
2022-09-20T00:06:50.228Z,85
2022-09-20T00:08:50.983Z,85
2022-09-20T00:10:50.829Z,85
2022-09-20T00:12:50.787Z,85
2022-09-20T00:14:50.522Z,85
2022-09-20T00:16:51.109Z,85
2022-09-20T00:18:50.044Z,85
2022-09-20T00:20:50.354Z,85
2022-09-20T00:22:50.154Z,85
2022-09-20T00:24:50.492Z,85
2022-09-20T00:26:50.704Z,85
2022-09-20T00:28:50.665Z,85
2022-09-20T00:30:50.703Z,85
2022-09-20T00:32:50.513Z,85
2022-09-20T00:34:50.677Z,85
2022-09-20T00:36:51.008Z,85
2022-09-20T00:38:50.193Z,85
2022-09-20T00:40:50.133Z,85
2022-09-20T00:42:50.983Z,85
2022-09-20T00:44:50.884Z,85
2022-09-20T00:46:50.267Z,85
2022-09-20T00:48:50.386Z,85
2022-09-20T00:50:50.368Z,85
2022-09-20T00:52:50.318Z,85
2022-09-20T00:54:50.265Z,85
2022-09-20T00:56:50.482Z,85
2022-09-20T00:58:50.336Z,85
2022-09-20T01:00:50.523Z,85
2022-09-20T01:02:50.919Z,85
2022-09-20T01:04:50.617Z,85
2022-09-20T01:06:50.787Z,85
2022-09-20T01:08:50.578Z,85
2022-09-20T01:10:50.303Z,86
2022-09-20T01:12:50.142Z,85
2022-09-20T01:14:50.912Z,85
2022-09-20T01:16:50.448Z,86
2022-09-20T01:18:50.150Z,86
2022-09-20T01:20:50.218Z,86
2022-09-20T01:22:50.424Z,86
2022-09-20T01:24:50.300Z,86
2022-09-20T01:26:50.815Z,86
2022-09-20T01:28:50.748Z,86
2022-09-20T01:30:50.736Z,86
2022-09-20T01:32:50.525Z,86
2022-09-20T01:34:50.814Z,86
2022-09-20T01:36:50.947Z,86
2022-09-20T01:38:50.852Z,86
2022-09-20T01:40:50.642Z,86
2022-09-20T01:42:50.461Z,86
2022-09-20T01:44:50.321Z,86
2022-09-20T01:46:50.633Z,86
2022-09-20T01:48:50.731Z,86
2022-09-20T01:50:50.695Z,86
2022-09-20T01:52:50.537Z,86
2022-09-20T01:54:50.471Z,86
2022-09-20T01:56:50.857Z,86
2022-09-20T01:59:24.972Z,86
2022-09-20T02:00:50.414Z,86
2022-09-20T02:02:51.017Z,86
2022-09-20T02:04:50.396Z,86
2022-09-20T02:06:50.083Z,86
2022-09-20T02:08:50.433Z,86
2022-09-20T02:10:50.557Z,86
2022-09-20T02:12:50.603Z,86
2022-09-20T02:14:50.650Z,86
2022-09-20T02:16:51.420Z,86
2022-09-20T02:18:50.330Z,86
2022-09-20T02:20:50.099Z,86
2022-09-20T02:22:51.177Z,86
2022-09-20T02:24:50.066Z,86
2022-09-20T02:26:50.301Z,86
2022-09-20T02:28:50.063Z,86
2022-09-20T02:30:50.903Z,86
2022-09-20T02:32:50.780Z,86
2022-09-20T02:34:50.179Z,86
2022-09-20T02:36:50.383Z,86
2022-09-20T02:38:50.222Z,86
2022-09-20T02:40:50.091Z,86
2022-09-20T02:42:51.018Z,86
2022-09-20T02:44:51.005Z,86
2022-09-20T02:46:50.048Z,86
2022-09-20T02:48:50.062Z,86
2022-09-20T02:50:50.187Z,85
2022-09-20T02:52:50.193Z,85
2022-09-20T02:54:50.036Z,85
2022-09-20T02:56:50.374Z,85
2022-09-20T02:58:50.255Z,85
2022-09-20T03:00:50.550Z,85
2022-09-20T03:02:50.310Z,85
2022-09-20T03:04:50.647Z,85
2022-09-20T03:06:50.843Z,85
2022-09-20T03:08:50.804Z,85
2022-09-20T03:10:50.678Z,85
2022-09-20T03:12:50.535Z,85
2022-09-20T03:14:50.399Z,85
2022-09-20T03:16:53.470Z,85
2022-09-20T03:18:50.433Z,85
2022-09-20T03:20:50.105Z,85
2022-09-20T03:22:50.135Z,85
2022-09-20T03:24:50.093Z,85
2022-09-20T03:26:50.229Z,85
2022-09-20T03:28:50.172Z,85
2022-09-20T03:30:50.126Z,85
2022-09-20T03:32:50.990Z,85
2022-09-20T03:34:50.225Z,85
2022-09-20T03:36:50.403Z,85
2022-09-20T03:38:50.259Z,85
2022-09-20T03:40:50.637Z,85
2022-09-20T03:42:50.649Z,85
2022-09-20T03:44:50.541Z,85
2022-09-20T03:46:50.825Z,85
2022-09-20T03:48:50.716Z,85
2022-09-20T03:50:50.660Z,85
2022-09-20T03:52:50.658Z,85
2022-09-20T03:54:50.665Z,85
2022-09-20T03:56:50.885Z,85
2022-09-20T03:58:50.754Z,85
2022-09-20T04:00:51.150Z,85
2022-09-20T04:02:50.103Z,85
2022-09-20T04:04:50.370Z,85
2022-09-20T04:06:50.683Z,85
2022-09-20T04:08:50.673Z,85
2022-09-20T04:10:50.661Z,85
2022-09-20T04:12:50.750Z,85
2022-09-20T04:14:50.549Z,85
2022-09-20T04:16:51.449Z,85
2022-09-20T04:18:50.394Z,85
2022-09-20T04:20:50.210Z,85
2022-09-20T04:22:51.015Z,85
2022-09-20T04:24:50.859Z,85
2022-09-20T04:26:50.047Z,85
2022-09-20T04:28:50.833Z,85
2022-09-20T04:30:50.790Z,85
2022-09-20T04:32:50.735Z,85
2022-09-20T04:34:50.951Z,85
2022-09-20T04:36:50.260Z,85
2022-09-20T04:38:50.351Z,85
2022-09-20T04:40:50.368Z,85
2022-09-20T04:42:50.290Z,85
2022-09-20T04:44:50.226Z,85
2022-09-20T04:46:56.785Z,85
2022-09-20T04:48:50.642Z,85
2022-09-20T04:50:50.612Z,85
2022-09-20T04:52:50.558Z,85
2022-09-20T04:54:50.319Z,85
2022-09-20T04:56:50.695Z,85
2022-09-20T04:58:50.511Z,85
2022-09-20T05:00:50.868Z,85
2022-09-20T05:02:50.867Z,85
2022-09-20T05:04:50.646Z,85
2022-09-20T05:06:50.413Z,85
2022-09-20T05:08:51.184Z,85
2022-09-20T05:10:50.536Z,86
2022-09-20T05:12:50.349Z,86
2022-09-20T05:14:50.207Z,86
2022-09-20T05:16:51.023Z,86
2022-09-20T05:18:50.849Z,86
2022-09-20T05:20:50.833Z,86
2022-09-20T05:22:50.689Z,86
2022-09-20T05:24:50.462Z,86
2022-09-20T05:26:50.554Z,86
2022-09-20T05:28:50.490Z,86
2022-09-20T05:30:50.381Z,86
2022-09-20T05:32:50.318Z,86
2022-09-20T05:34:50.709Z,86
2022-09-20T05:36:50.987Z,86
2022-09-20T05:38:50.798Z,86
2022-09-20T05:40:50.772Z,86
2022-09-20T05:42:50.652Z,86
2022-09-20T05:44:50.423Z,86
2022-09-20T05:46:50.764Z,86
2022-09-20T05:48:50.625Z,86
2022-09-20T05:50:50.753Z,86
2022-09-20T05:52:50.675Z,86
2022-09-20T05:54:50.629Z,86
2022-09-20T05:56:51.008Z,86
2022-09-20T05:58:51.050Z,86
2022-09-20T06:00:51.330Z,86
2022-09-20T06:02:50.322Z,86
2022-09-20T06:04:50.081Z,86
2022-09-20T06:06:50.444Z,86
2022-09-20T06:08:50.453Z,86
2022-09-20T06:10:50.627Z,86
2022-09-20T06:12:50.538Z,86
2022-09-20T06:14:50.335Z,86
2022-09-20T06:16:50.619Z,86
2022-09-20T06:18:50.649Z,86
2022-09-20T06:20:50.533Z,86
2022-09-20T06:22:50.607Z,86
2022-09-20T06:24:50.421Z,86
2022-09-20T06:26:50.659Z,86
2022-09-20T06:28:51.085Z,86
2022-09-20T06:30:51.468Z,86
2022-09-20T06:32:50.406Z,86
2022-09-20T06:34:50.118Z,86
2022-09-20T06:36:50.349Z,86
2022-09-20T06:38:50.302Z,86
2022-09-20T06:40:50.170Z,86
2022-09-20T06:42:50.094Z,86
2022-09-20T06:44:50.087Z,86
2022-09-20T06:46:50.491Z,86
2022-09-20T06:48:50.446Z,86
2022-09-20T06:50:50.327Z,86
2022-09-20T06:52:50.427Z,86
2022-09-20T06:54:50.380Z,86
2022-09-20T06:56:50.703Z,86
2022-09-20T06:58:50.585Z,86
2022-09-20T07:00:50.605Z,86
2022-09-20T07:02:50.658Z,86
2022-09-20T07:04:50.978Z,86
2022-09-20T07:06:50.425Z,86
2022-09-20T07:08:50.375Z,86
2022-09-20T07:10:50.380Z,86
2022-09-20T07:12:50.540Z,86
2022-09-20T07:14:50.437Z,86
2022-09-20T07:16:51.080Z,86
2022-09-20T07:18:50.126Z,85
2022-09-20T07:20:50.121Z,85
2022-09-20T07:22:50.335Z,85
2022-09-20T07:24:50.186Z,85
2022-09-20T07:26:50.393Z,85
2022-09-20T07:28:50.344Z,85
2022-09-20T07:30:50.202Z,85
2022-09-20T07:32:50.144Z,85
2022-09-20T07:34:50.631Z,85
2022-09-20T07:36:50.651Z,85
2022-09-20T07:38:50.664Z,85
2022-09-20T07:40:50.712Z,85
2022-09-20T07:42:56.752Z,85
2022-09-20T07:44:50.870Z,85
2022-09-20T07:46:50.227Z,84
2022-09-20T07:48:50.223Z,84
2022-09-20T07:50:51.029Z,84
2022-09-20T07:52:51.006Z,84
2022-09-20T07:54:50.845Z,84
2022-09-20T07:56:50.436Z,84
2022-09-20T07:58:53.132Z,84
2022-09-20T08:00:50.440Z,83
2022-09-20T08:02:50.685Z,84
2022-09-20T08:04:50.335Z,84
2022-09-20T08:06:50.728Z,84
2022-09-20T08:08:50.698Z,84
2022-09-20T08:10:50.831Z,84
2022-09-20T08:14:50.921Z,84
2022-09-20T08:16:50.731Z,83
2022-09-20T08:18:50.674Z,83
2022-09-20T08:20:50.714Z,82
2022-09-20T08:23:24.274Z,82
2022-09-20T08:24:50.369Z,82
2022-09-20T08:26:50.708Z,82
2022-09-20T08:28:50.744Z,81
2022-09-20T08:30:50.706Z,81
2022-09-20T08:32:50.625Z,81
2022-09-20T08:34:50.131Z,81
2022-09-20T08:36:50.566Z,81
2022-09-20T08:39:58.271Z,81
2022-09-20T08:40:50.595Z,81
2022-09-20T08:42:50.566Z,81
2022-09-20T08:44:59.744Z,81
2022-09-20T08:46:50.987Z,81
2022-09-20T08:48:50.096Z,80
2022-09-20T08:50:50.141Z,80
2022-09-20T08:52:50.339Z,80
2022-09-20T08:54:50.283Z,80
2022-09-20T08:56:50.397Z,80
2022-09-20T08:58:50.242Z,80
2022-09-20T09:00:50.506Z,80
2022-09-20T09:02:50.329Z,80
2022-09-20T09:04:50.845Z,80
2022-09-20T09:06:50.124Z,80
2022-09-20T09:08:50.210Z,80
2022-09-20T09:10:50.366Z,80
2022-09-20T09:12:50.280Z,80
2022-09-20T09:14:50.106Z,80
2022-09-20T09:16:50.599Z,80
2022-09-20T09:18:50.633Z,80
2022-09-20T09:20:50.615Z,79
2022-09-20T09:22:50.554Z,79
2022-09-20T09:24:50.564Z,79
2022-09-20T09:26:50.612Z,79
2022-09-20T09:28:50.597Z,79
2022-09-20T09:30:50.662Z,79
2022-09-20T09:32:50.649Z,79
2022-09-20T09:34:50.986Z,80
2022-09-20T09:36:50.324Z,80
2022-09-20T09:38:50.457Z,80
2022-09-20T09:40:50.321Z,80
2022-09-20T09:42:50.273Z,79
2022-09-20T09:44:50.168Z,78
2022-09-20T09:46:50.589Z,78
2022-09-20T09:48:50.701Z,78
2022-09-20T09:50:50.647Z,77
2022-09-20T09:52:50.748Z,76
2022-09-20T09:54:50.884Z,77
2022-09-20T09:56:50.151Z,77
2022-09-20T09:58:50.231Z,76
2022-09-20T10:00:50.670Z,76
2022-09-20T10:02:50.686Z,74
2022-09-20T10:04:50.114Z,75
2022-09-20T10:06:53.041Z,75
2022-09-20T10:08:50.043Z,75
2022-09-20T10:10:51.193Z,76
2022-09-20T10:12:51.004Z,75
2022-09-20T10:14:50.959Z,76
2022-09-20T10:16:50.697Z,76
2022-09-20T10:18:50.817Z,76
2022-09-20T10:20:50.879Z,75
2022-09-20T10:23:51.836Z,76
2022-09-20T10:24:52.240Z,75
2022-09-20T10:26:50.667Z,76
2022-09-20T10:28:50.666Z,76
2022-09-20T10:30:50.812Z,76
2022-09-20T10:32:50.656Z,74
2022-09-20T10:34:50.126Z,74
2022-09-20T10:36:50.495Z,74
2022-09-20T10:38:50.501Z,74
2022-09-20T10:40:50.320Z,74
2022-09-20T10:42:50.406Z,73
2022-09-20T10:44:50.247Z,73
2022-09-20T10:46:50.816Z,72
2022-09-20T10:48:50.882Z,73
2022-09-20T10:50:50.675Z,71
2022-09-20T10:52:50.634Z,70
2022-09-20T10:54:50.728Z,71
2022-09-20T10:56:50.056Z,71
2022-09-20T10:58:50.383Z,73
2022-09-20T11:00:50.659Z,72
2022-09-20T11:02:50.574Z,71
2022-09-20T11:04:50.106Z,70
2022-09-20T11:06:50.415Z,70
2022-09-20T11:08:50.217Z,69
2022-09-20T11:10:50.055Z,71
2022-09-20T11:12:51.039Z,69
2022-09-20T11:14:50.927Z,69
2022-09-20T11:16:50.749Z,70
2022-09-20T11:18:50.728Z,71
2022-09-20T11:20:50.596Z,70
2022-09-20T11:22:50.421Z,72
2022-09-20T11:24:50.229Z,72
2022-09-20T11:26:50.532Z,70
2022-09-20T11:28:50.584Z,68
2022-09-20T11:30:50.536Z,68
2022-09-20T11:32:50.597Z,67
2022-09-20T11:34:50.080Z,67
2022-09-20T11:36:50.533Z,67
2022-09-20T11:38:54.073Z,69
2022-09-20T11:40:50.124Z,69
2022-09-20T11:42:50.863Z,69
2022-09-20T11:44:50.716Z,67
2022-09-20T11:46:50.857Z,68
2022-09-20T11:48:50.755Z,67
2022-09-20T11:50:51.009Z,67
2022-09-20T11:52:50.860Z,67
2022-09-20T11:54:50.895Z,68
2022-09-20T11:56:50.175Z,69
2022-09-20T11:58:50.290Z,67
2022-09-20T12:00:50.136Z,67
2022-09-20T12:02:50.973Z,67
2022-09-20T12:04:50.202Z,66
2022-09-20T12:06:50.517Z,66
2022-09-20T12:08:50.425Z,66
2022-09-20T12:10:51.013Z,67
2022-09-20T12:12:50.227Z,67
2022-09-20T12:14:50.296Z,68
2022-09-20T12:16:50.994Z,67
2022-09-20T12:18:50.929Z,66
2022-09-20T12:20:50.927Z,66
2022-09-20T12:22:50.705Z,66
2022-09-20T12:24:50.629Z,67
2022-09-20T12:26:50.955Z,67
2022-09-20T12:28:50.879Z,65
2022-09-20T12:30:51.059Z,65
2022-09-20T12:32:50.978Z,65
2022-09-20T12:34:50.269Z,65
2022-09-20T12:36:50.479Z,65
2022-09-20T12:38:50.411Z,66
2022-09-20T12:40:50.289Z,66
2022-09-20T12:42:50.391Z,64
2022-09-20T12:44:50.300Z,64
2022-09-20T12:46:50.579Z,64
2022-09-20T12:48:50.325Z,64
2022-09-20T12:50:50.211Z,64
2022-09-20T12:52:50.241Z,63
2022-09-20T12:54:50.099Z,65
2022-09-20T12:56:50.442Z,65
2022-09-20T12:58:50.371Z,64
2022-09-20T13:00:50.808Z,64
2022-09-20T13:02:50.860Z,64
2022-09-20T13:04:50.115Z,65
2022-09-20T13:06:50.462Z,65
2022-09-20T13:08:50.419Z,64
2022-09-20T13:10:50.330Z,65
2022-09-20T13:12:55.150Z,66
2022-09-20T13:14:50.129Z,65
2022-09-20T13:16:50.307Z,65
2022-09-20T13:18:50.225Z,65
2022-09-20T13:20:50.961Z,64
2022-09-20T13:22:50.840Z,64
2022-09-20T13:24:50.731Z,64
2022-09-20T13:26:50.066Z,64
2022-09-20T13:28:50.208Z,64
2022-09-20T13:30:50.849Z,65
2022-09-20T13:32:51.003Z,64
2022-09-20T13:34:50.534Z,65
2022-09-20T13:36:56.938Z,65
2022-09-20T13:38:50.486Z,66
2022-09-20T13:40:50.198Z,66
2022-09-20T13:42:50.455Z,67
2022-09-20T13:44:50.622Z,66
2022-09-20T13:46:50.796Z,66
2022-09-20T13:48:50.902Z,66
2022-09-20T13:50:54.411Z,66
2022-09-20T13:52:50.357Z,66
2022-09-20T13:54:50.323Z,66
2022-09-20T13:56:50.778Z,65
2022-09-20T13:58:50.551Z,63
2022-09-20T14:00:50.785Z,63
2022-09-20T14:02:50.604Z,64
2022-09-20T14:04:50.934Z,65
2022-09-20T14:06:50.158Z,65
2022-09-20T14:08:50.292Z,62
2022-09-20T14:10:50.197Z,61
2022-09-20T14:12:50.156Z,59
2022-09-20T14:14:50.313Z,59
2022-09-20T14:16:50.403Z,60
2022-09-20T14:18:50.333Z,59
2022-09-20T14:20:51.016Z,58
2022-09-20T14:22:51.048Z,58
2022-09-20T14:24:50.795Z,59
2022-09-20T14:26:50.903Z,58
2022-09-20T14:28:50.687Z,58
2022-09-20T14:30:50.464Z,59
2022-09-20T14:32:50.678Z,59
2022-09-20T14:34:50.073Z,58
2022-09-20T14:36:50.429Z,58
2022-09-20T14:38:50.147Z,56
2022-09-20T14:40:50.052Z,56
2022-09-20T14:42:50.082Z,56
2022-09-20T14:44:50.942Z,57
2022-09-20T14:46:50.255Z,58
2022-09-20T14:48:50.040Z,57
2022-09-20T14:50:50.905Z,57
2022-09-20T14:52:50.925Z,57
2022-09-20T14:54:50.768Z,57
2022-09-20T14:56:51.004Z,56
2022-09-20T14:58:51.053Z,57
2022-09-20T15:00:51.167Z,57
2022-09-20T15:02:50.382Z,57
2022-09-20T15:04:50.832Z,58
2022-09-20T15:06:50.850Z,59
2022-09-20T15:08:50.618Z,59
2022-09-20T15:10:50.656Z,60
2022-09-20T15:12:50.470Z,60
2022-09-20T15:14:50.284Z,60
2022-09-20T15:16:50.786Z,61
2022-09-20T15:18:50.546Z,60
2022-09-20T15:20:50.521Z,60
2022-09-20T15:22:50.467Z,60
2022-09-20T15:24:50.408Z,61
2022-09-20T15:26:50.656Z,62
2022-09-20T15:28:50.350Z,62
2022-09-20T15:30:50.233Z,62
2022-09-20T15:32:50.048Z,62
2022-09-20T15:34:50.607Z,61
2022-09-20T15:36:50.755Z,62
2022-09-20T15:38:50.397Z,62
2022-09-20T15:40:50.273Z,62
2022-09-20T15:42:50.224Z,61
2022-09-20T15:44:50.058Z,61
2022-09-20T15:46:50.304Z,62
2022-09-20T15:48:50.242Z,62
2022-09-20T15:50:50.949Z,62
2022-09-20T15:52:51.015Z,61
2022-09-20T15:54:50.779Z,60
2022-09-20T15:56:51.127Z,60
2022-09-20T15:58:50.961Z,60
2022-09-20T16:00:51.011Z,60
2022-09-20T16:02:50.893Z,61
2022-09-20T16:04:50.106Z,61
2022-09-20T16:06:50.363Z,61
2022-09-20T16:08:50.109Z,62
2022-09-20T16:10:50.927Z,63
2022-09-20T16:12:50.859Z,63
2022-09-20T16:14:50.644Z,64
2022-09-20T16:16:50.879Z,64
2022-09-20T16:18:50.571Z,64
2022-09-20T16:20:50.432Z,64
2022-09-20T16:22:50.369Z,64
2022-09-20T16:24:50.192Z,64
2022-09-20T16:26:50.439Z,64
2022-09-20T16:28:50.203Z,65
2022-09-20T16:30:50.922Z,66
2022-09-20T16:32:51.027Z,69
2022-09-20T16:34:50.632Z,69
2022-09-20T16:36:50.785Z,69
2022-09-20T16:38:50.565Z,68
2022-09-20T16:40:50.322Z,69
2022-09-20T16:42:55.128Z,69
2022-09-20T16:44:50.819Z,69
2022-09-20T16:46:50.195Z,69
2022-09-20T16:48:50.217Z,70
2022-09-20T16:50:50.955Z,70
2022-09-20T16:52:50.837Z,70
2022-09-20T16:54:50.598Z,70
2022-09-20T16:56:50.874Z,71
2022-09-20T16:58:50.757Z,70
2022-09-20T17:00:51.002Z,69
2022-09-20T17:02:50.787Z,70
2022-09-20T17:04:50.308Z,70
2022-09-20T17:06:50.680Z,70
2022-09-20T17:08:50.505Z,69
2022-09-20T17:10:50.463Z,70
2022-09-20T17:12:50.545Z,70
2022-09-20T17:14:50.445Z,70
2022-09-20T17:16:50.956Z,70
2022-09-20T17:18:50.671Z,70
2022-09-20T17:20:50.706Z,71
2022-09-20T17:22:50.657Z,71
2022-09-20T17:24:50.511Z,71
2022-09-20T17:26:51.330Z,71
2022-09-20T17:28:50.158Z,71
2022-09-20T17:30:51.035Z,71
2022-09-20T17:32:50.878Z,71
2022-09-20T17:34:50.344Z,71
2022-09-20T17:36:51.127Z,72
2022-09-20T17:38:50.026Z,72
2022-09-20T17:40:50.842Z,72
2022-09-20T17:42:50.886Z,72
2022-09-20T17:44:50.678Z,72
2022-09-20T17:46:51.677Z,72
2022-09-20T17:48:50.616Z,72
2022-09-20T17:50:50.534Z,73
2022-09-20T17:52:50.606Z,73
2022-09-20T17:54:50.505Z,73
2022-09-20T17:56:50.743Z,73
2022-09-20T17:58:50.485Z,73
2022-09-20T18:00:50.656Z,73
2022-09-20T18:02:50.604Z,73
2022-09-20T18:04:50.879Z,73
2022-09-20T18:06:50.067Z,73
2022-09-20T18:08:50.775Z,73
2022-09-20T18:10:50.864Z,73
2022-09-20T18:12:50.674Z,74
2022-09-20T18:14:50.403Z,75
2022-09-20T18:16:50.496Z,75
2022-09-20T18:18:50.280Z,75
2022-09-20T18:20:50.329Z,75
2022-09-20T18:22:50.105Z,75
2022-09-20T18:24:50.853Z,75
2022-09-20T18:26:50.870Z,75
2022-09-20T18:28:50.639Z,75
2022-09-20T18:30:50.635Z,75
2022-09-20T18:32:50.406Z,75
2022-09-20T18:34:50.952Z,75
2022-09-20T18:36:50.077Z,75
2022-09-20T18:38:50.042Z,75
2022-09-20T18:40:50.897Z,75
2022-09-20T18:42:50.780Z,75
2022-09-20T18:44:50.505Z,75
2022-09-20T18:46:50.899Z,75
2022-09-20T18:48:50.766Z,75
2022-09-20T18:50:50.716Z,75
2022-09-20T18:52:50.522Z,76
2022-09-20T18:54:50.379Z,76
2022-09-20T18:56:50.372Z,76
2022-09-20T18:58:50.362Z,77
2022-09-20T19:00:50.896Z,77
2022-09-20T19:02:50.781Z,76
2022-09-20T19:04:50.231Z,76
2022-09-20T19:06:50.363Z,76
2022-09-20T19:08:50.228Z,76
2022-09-20T19:10:50.114Z,76
2022-09-20T19:12:50.187Z,76
2022-09-20T19:14:50.943Z,77
2022-09-20T19:16:50.848Z,77
2022-09-20T19:18:50.745Z,77
2022-09-20T19:20:50.451Z,77
2022-09-20T19:22:50.379Z,80
2022-09-20T19:24:50.140Z,79
2022-09-20T19:26:50.176Z,79
2022-09-20T19:28:51.037Z,78
2022-09-20T19:30:50.883Z,78
2022-09-20T19:32:50.473Z,78
2022-09-20T19:34:50.764Z,78
2022-09-20T19:36:50.810Z,78
2022-09-20T19:38:50.716Z,78
2022-09-20T19:40:50.407Z,78
2022-09-20T19:42:50.233Z,78
2022-09-20T19:44:50.177Z,78
2022-09-20T19:46:50.696Z,78
2022-09-20T19:48:50.519Z,78
2022-09-20T19:50:50.213Z,78
2022-09-20T19:52:51.028Z,78
2022-09-20T19:54:51.034Z,78
2022-09-20T19:56:50.834Z,78
2022-09-20T19:58:50.734Z,79
2022-09-20T20:00:50.634Z,79
2022-09-20T20:02:50.801Z,80
2022-09-20T20:04:50.072Z,80
2022-09-20T20:06:50.161Z,82
2022-09-20T20:08:51.060Z,81
2022-09-20T20:10:50.939Z,81
2022-09-20T20:12:50.687Z,80
2022-09-20T20:14:50.668Z,80
2022-09-20T20:16:50.926Z,80
2022-09-20T20:18:50.753Z,80
2022-09-20T20:20:50.628Z,80
2022-09-20T20:22:50.491Z,80
2022-09-20T20:24:50.421Z,80
2022-09-20T20:26:50.446Z,80
2022-09-20T20:28:50.340Z,80
2022-09-20T20:30:50.759Z,80
2022-09-20T20:32:50.685Z,80
2022-09-20T20:34:50.169Z,80
2022-09-20T20:36:50.282Z,80
2022-09-20T20:38:50.485Z,80
2022-09-20T20:40:50.269Z,80
2022-09-20T20:42:50.167Z,80
2022-09-20T20:44:50.163Z,80
2022-09-20T20:46:50.454Z,80
2022-09-20T20:48:50.301Z,80
2022-09-20T20:50:50.983Z,80
2022-09-20T20:52:50.745Z,81
2022-09-20T20:54:50.429Z,82
2022-09-20T20:56:50.703Z,82
2022-09-20T20:58:50.391Z,82
2022-09-20T21:00:50.290Z,82
2022-09-20T21:02:50.272Z,82
2022-09-20T21:04:50.440Z,82
2022-09-20T21:06:50.578Z,82
2022-09-20T21:08:50.622Z,82
2022-09-20T21:10:50.479Z,82
2022-09-20T21:12:50.440Z,81
2022-09-20T21:14:50.291Z,81
2022-09-20T21:16:50.576Z,81
2022-09-20T21:18:50.215Z,81
2022-09-20T21:20:50.104Z,81
2022-09-20T21:22:50.872Z,81
2022-09-20T21:24:50.603Z,81
2022-09-20T21:26:50.635Z,81
2022-09-20T21:28:50.470Z,81
2022-09-20T21:30:50.390Z,81
2022-09-20T21:32:50.416Z,81
2022-09-20T21:34:50.657Z,81
2022-09-20T21:36:50.934Z,81
2022-09-20T21:38:50.610Z,81
2022-09-20T21:40:50.341Z,81
2022-09-20T21:42:50.317Z,81
2022-09-20T21:44:50.161Z,82
2022-09-20T21:46:50.165Z,82
2022-09-20T21:48:50.163Z,82
2022-09-20T21:50:50.068Z,82
2022-09-20T21:52:50.910Z,82
2022-09-20T21:54:50.757Z,82
2022-09-20T21:56:51.038Z,82
2022-09-20T21:58:50.923Z,82
2022-09-20T22:00:50.800Z,82
2022-09-20T22:02:50.568Z,82
2022-09-20T22:04:50.894Z,82
2022-09-20T22:06:50.164Z,82
2022-09-20T22:08:50.104Z,82
2022-09-20T22:10:50.957Z,82
2022-09-20T22:12:50.891Z,81
2022-09-20T22:14:50.806Z,82
2022-09-20T22:16:51.010Z,82
2022-09-20T22:18:50.901Z,82
2022-09-20T22:20:50.666Z,81
2022-09-20T22:22:50.553Z,82
2022-09-20T22:24:50.552Z,81
2022-09-20T22:26:50.783Z,81
2022-09-20T22:28:50.491Z,82
2022-09-20T22:30:50.668Z,82
2022-09-20T22:32:50.315Z,82
2022-09-20T22:34:50.614Z,82
2022-09-20T22:36:50.999Z,82
2022-09-20T22:38:50.881Z,82
2022-09-20T22:40:50.917Z,82
2022-09-20T22:42:50.592Z,82
2022-09-20T22:44:50.423Z,82
2022-09-20T22:46:50.587Z,82
2022-09-20T22:48:50.424Z,82
2022-09-20T22:50:50.397Z,82
2022-09-20T22:52:50.315Z,82
2022-09-20T22:54:50.251Z,82
2022-09-20T22:56:50.494Z,82
2022-09-20T22:58:50.367Z,82
2022-09-20T23:00:50.273Z,82
2022-09-20T23:02:50.922Z,82
2022-09-20T23:04:50.484Z,81
2022-09-20T23:06:50.672Z,81
2022-09-20T23:08:50.431Z,82
2022-09-20T23:10:50.407Z,82
2022-09-20T23:12:50.243Z,82
2022-09-20T23:14:50.063Z,82
2022-09-20T23:16:50.854Z,82
2022-09-20T23:18:50.528Z,82
2022-09-20T23:20:50.528Z,82
2022-09-20T23:22:50.204Z,82
2022-09-20T23:24:50.080Z,82
2022-09-20T23:26:50.212Z,82
2022-09-20T23:28:50.954Z,82
2022-09-20T23:30:50.903Z,82
2022-09-20T23:32:50.905Z,82
2022-09-20T23:34:50.327Z,82
2022-09-20T23:36:50.585Z,82
2022-09-20T23:38:50.324Z,82
2022-09-20T23:40:50.970Z,83
2022-09-20T23:42:50.844Z,83
2022-09-20T23:44:50.445Z,83
2022-09-20T23:46:50.551Z,83
2022-09-20T23:48:50.522Z,83
2022-09-20T23:50:50.203Z,83
2022-09-20T23:52:50.955Z,83
2022-09-20T23:54:50.722Z,83
2022-09-20T23:56:50.831Z,83
2022-09-20T23:58:50.644Z,83
